sensor_id;sensor_type;location;lat;lon;timestamp;pressure;altitude;pressure_sealevel;temperature;humidity
40117;BME280;25829;50.228;18.936;2023-03-13T00:00:35;98080.00;;;4.25;55.38
40117;BME280;25829;50.228;18.936;2023-03-13T00:03:39;98086.50;;;4.29;55.22
40117;BME280;25829;50.228;18.936;2023-03-13T00:06:40;98078.66;;;4.29;55.53
40117;BME280;25829;50.228;18.936;2023-03-13T00:09:44;98082.28;;;4.28;56.00
40117;BME280;25829;50.228;18.936;2023-03-13T00:12:51;98082.72;;;4.31;56.11
40117;BME280;25829;50.228;18.936;2023-03-13T00:16:05;98072.75;;;4.35;56.23
40117;BME280;25829;50.228;18.936;2023-03-13T00:19:07;98069.16;;;4.36;56.14
40117;BME280;25829;50.228;18.936;2023-03-13T00:22:08;98081.50;;;4.42;56.46
40117;BME280;25829;50.228;18.936;2023-03-13T00:25:08;98073.50;;;4.44;56.43
40117;BME280;25829;50.228;18.936;2023-03-13T00:28:09;98066.47;;;4.44;56.52
40117;BME280;25829;50.228;18.936;2023-03-13T00:31:21;98061.88;;;4.46;56.67
40117;BME280;25829;50.228;18.936;2023-03-13T00:34:23;98046.19;;;4.46;57.07
40117;BME280;25829;50.228;18.936;2023-03-13T00:37:27;98043.22;;;4.49;56.88
40117;BME280;25829;50.228;18.936;2023-03-13T00:40:28;98043.06;;;4.51;57.31
40117;BME280;25829;50.228;18.936;2023-03-13T00:43:35;98030.44;;;4.54;57.19
40117;BME280;25829;50.228;18.936;2023-03-13T00:46:36;98041.50;;;4.56;57.36
40117;BME280;25829;50.228;18.936;2023-03-13T00:49:37;98039.75;;;4.57;57.54
40117;BME280;25829;50.228;18.936;2023-03-13T00:52:40;98040.56;;;4.57;57.50
40117;BME280;25829;50.228;18.936;2023-03-13T00:55:59;98035.13;;;4.59;57.85
40117;BME280;25829;50.228;18.936;2023-03-13T00:59:03;98037.75;;;4.59;58.03
40117;BME280;25829;50.228;18.936;2023-03-13T01:02:10;98022.34;;;4.64;58.04
40117;BME280;25829;50.228;18.936;2023-03-13T01:05:11;98027.38;;;4.65;58.05
40117;BME280;25829;50.228;18.936;2023-03-13T01:08:12;98027.03;;;4.69;58.11
40117;BME280;25829;50.228;18.936;2023-03-13T01:11:15;98025.88;;;4.71;58.65
40117;BME280;25829;50.228;18.936;2023-03-13T01:14:18;98032.72;;;4.72;58.43
40117;BME280;25829;50.228;18.936;2023-03-13T01:17:19;98035.31;;;4.72;58.70
40117;BME280;25829;50.228;18.936;2023-03-13T01:20:20;98039.38;;;4.75;59.06
40117;BME280;25829;50.228;18.936;2023-03-13T01:23:21;98043.81;;;4.74;59.28
40117;BME280;25829;50.228;18.936;2023-03-13T01:26:22;98050.81;;;4.74;59.33
40117;BME280;25829;50.228;18.936;2023-03-13T01:29:29;98059.09;;;4.77;59.47
40117;BME280;25829;50.228;18.936;2023-03-13T01:32:32;98053.50;;;4.80;59.98
40117;BME280;25829;50.228;18.936;2023-03-13T01:35:41;98055.97;;;4.82;59.86
40117;BME280;25829;50.228;18.936;2023-03-13T01:38:48;98047.94;;;4.83;59.87
40117;BME280;25829;50.228;18.936;2023-03-13T01:41:55;98054.59;;;4.86;59.66
40117;BME280;25829;50.228;18.936;2023-03-13T01:44:56;98051.63;;;4.89;59.70
40117;BME280;25829;50.228;18.936;2023-03-13T01:47:59;98046.84;;;4.93;60.18
40117;BME280;25829;50.228;18.936;2023-03-13T01:51:39;98050.91;;;4.95;59.79
40117;BME280;25829;50.228;18.936;2023-03-13T01:55:08;98048.31;;;4.95;60.52
40117;BME280;25829;50.228;18.936;2023-03-13T01:58:12;98040.63;;;4.94;60.27
40117;BME280;25829;50.228;18.936;2023-03-13T02:01:20;98044.69;;;4.96;60.29
40117;BME280;25829;50.228;18.936;2023-03-13T02:04:23;98041.88;;;4.98;60.94
40117;BME280;25829;50.228;18.936;2023-03-13T02:07:30;98042.72;;;4.98;60.53
40117;BME280;25829;50.228;18.936;2023-03-13T02:10:49;98042.31;;;5.01;61.10
40117;BME280;25829;50.228;18.936;2023-03-13T02:13:52;98054.78;;;4.99;60.63
40117;BME280;25829;50.228;18.936;2023-03-13T02:16:54;98050.00;;;5.03;61.08
40117;BME280;25829;50.228;18.936;2023-03-13T02:19:55;98045.59;;;5.03;61.11
40117;BME280;25829;50.228;18.936;2023-03-13T02:23:30;98054.88;;;5.06;61.60
40117;BME280;25829;50.228;18.936;2023-03-13T02:26:34;98051.63;;;5.04;61.60
40117;BME280;25829;50.228;18.936;2023-03-13T02:29:40;98063.69;;;5.05;61.49
40117;BME280;25829;50.228;18.936;2023-03-13T02:32:44;98075.59;;;5.07;61.95
40117;BME280;25829;50.228;18.936;2023-03-13T02:35:46;98068.56;;;5.08;61.80
40117;BME280;25829;50.228;18.936;2023-03-13T02:39:02;98077.84;;;5.10;61.94
40117;BME280;25829;50.228;18.936;2023-03-13T02:42:04;98081.09;;;5.12;62.07
40117;BME280;25829;50.228;18.936;2023-03-13T02:45:09;98080.09;;;5.13;62.13
40117;BME280;25829;50.228;18.936;2023-03-13T02:48:30;98086.78;;;5.16;62.03
40117;BME280;25829;50.228;18.936;2023-03-13T02:51:41;98088.19;;;5.19;61.78
40117;BME280;25829;50.228;18.936;2023-03-13T02:54:52;98082.59;;;5.22;62.12
40117;BME280;25829;50.228;18.936;2023-03-13T02:57:55;98095.53;;;5.23;62.13
40117;BME280;25829;50.228;18.936;2023-03-13T03:00:56;98099.19;;;5.29;62.00
40117;BME280;25829;50.228;18.936;2023-03-13T03:03:57;98086.47;;;5.26;62.41
40117;BME280;25829;50.228;18.936;2023-03-13T03:06:58;98091.53;;;5.27;61.96
40117;BME280;25829;50.228;18.936;2023-03-13T03:09:59;98092.34;;;5.28;62.33
40117;BME280;25829;50.228;18.936;2023-03-13T03:13:00;98084.84;;;5.25;62.65
40117;BME280;25829;50.228;18.936;2023-03-13T03:16:36;98079.47;;;5.26;62.63
40117;BME280;25829;50.228;18.936;2023-03-13T03:19:39;98079.47;;;5.26;62.83
40117;BME280;25829;50.228;18.936;2023-03-13T03:22:41;98087.31;;;5.26;63.18
40117;BME280;25829;50.228;18.936;2023-03-13T03:25:42;98087.47;;;5.25;63.17
40117;BME280;25829;50.228;18.936;2023-03-13T03:28:50;98090.72;;;5.27;62.95
40117;BME280;25829;50.228;18.936;2023-03-13T03:31:51;98091.09;;;5.24;63.03
40117;BME280;25829;50.228;18.936;2023-03-13T03:34:51;98090.72;;;5.27;63.09
40117;BME280;25829;50.228;18.936;2023-03-13T03:37:52;98090.53;;;5.28;63.13
40117;BME280;25829;50.228;18.936;2023-03-13T03:40:53;98094.78;;;5.29;63.36
40117;BME280;25829;50.228;18.936;2023-03-13T03:43:54;98088.28;;;5.25;63.50
40117;BME280;25829;50.228;18.936;2023-03-13T03:46:59;98090.66;;;5.20;63.81
40117;BME280;25829;50.228;18.936;2023-03-13T03:50:04;98086.88;;;5.23;64.39
40117;BME280;25829;50.228;18.936;2023-03-13T03:53:15;98094.50;;;5.24;63.83
40117;BME280;25829;50.228;18.936;2023-03-13T03:56:19;98095.97;;;5.27;64.26
40117;BME280;25829;50.228;18.936;2023-03-13T03:59:25;98083.84;;;5.26;64.15
40117;BME280;25829;50.228;18.936;2023-03-13T04:02:31;98086.94;;;5.29;63.65
40117;BME280;25829;50.228;18.936;2023-03-13T04:05:32;98082.53;;;5.30;64.30
40117;BME280;25829;50.228;18.936;2023-03-13T04:08:33;98086.94;;;5.29;64.23
40117;BME280;25829;50.228;18.936;2023-03-13T04:11:34;98087.56;;;5.31;64.20
40117;BME280;25829;50.228;18.936;2023-03-13T04:14:34;98086.94;;;5.29;64.21
40117;BME280;25829;50.228;18.936;2023-03-13T04:17:39;98093.00;;;5.30;64.61
40117;BME280;25829;50.228;18.936;2023-03-13T04:20:44;98077.91;;;5.32;64.45
40117;BME280;25829;50.228;18.936;2023-03-13T04:23:49;98080.72;;;5.30;64.77
40117;BME280;25829;50.228;18.936;2023-03-13T04:26:51;98075.47;;;5.30;64.39
40117;BME280;25829;50.228;18.936;2023-03-13T04:29:52;98070.25;;;5.30;64.75
40117;BME280;25829;50.228;18.936;2023-03-13T04:33:13;98071.06;;;5.31;64.32
40117;BME280;25829;50.228;18.936;2023-03-13T04:37:01;98069.25;;;5.31;64.23
40117;BME280;25829;50.228;18.936;2023-03-13T04:40:25;98071.06;;;5.31;64.85
40117;BME280;25829;50.228;18.936;2023-03-13T04:44:01;98063.41;;;5.29;65.16
40117;BME280;25829;50.228;18.936;2023-03-13T04:47:27;98066.63;;;5.31;64.92
40117;BME280;25829;50.228;18.936;2023-03-13T04:51:06;98062.41;;;5.30;64.86
40117;BME280;25829;50.228;18.936;2023-03-13T04:54:24;98060.59;;;5.31;64.60
40117;BME280;25829;50.228;18.936;2023-03-13T04:57:55;98067.63;;;5.30;64.82
40117;BME280;25829;50.228;18.936;2023-03-13T05:01:12;98068.25;;;5.32;64.60
40117;BME280;25829;50.228;18.936;2023-03-13T05:04:51;98064.09;;;5.38;64.70
40117;BME280;25829;50.228;18.936;2023-03-13T05:08:11;98056.06;;;5.40;64.53
40117;BME280;25829;50.228;18.936;2023-03-13T05:11:25;98060.47;;;5.39;64.94
40117;BME280;25829;50.228;18.936;2023-03-13T05:14:50;98064.53;;;5.42;64.50
40117;BME280;25829;50.228;18.936;2023-03-13T05:18:15;98055.09;;;5.41;64.33
40117;BME280;25829;50.228;18.936;2023-03-13T05:21:29;98053.28;;;5.41;64.94
40117;BME280;25829;50.228;18.936;2023-03-13T05:24:48;98046.59;;;5.39;64.79
40117;BME280;25829;50.228;18.936;2023-03-13T05:28:02;98050.00;;;5.39;64.74
40117;BME280;25829;50.228;18.936;2023-03-13T05:31:21;98055.25;;;5.39;64.82
40117;BME280;25829;50.228;18.936;2023-03-13T05:34:35;98050.22;;;5.38;65.11
40117;BME280;25829;50.228;18.936;2023-03-13T05:37:44;98042.00;;;5.41;64.75
40117;BME280;25829;50.228;18.936;2023-03-13T05:41:04;98050.91;;;5.46;64.92
40117;BME280;25829;50.228;18.936;2023-03-13T05:44:23;98048.13;;;5.48;64.95
40117;BME280;25829;50.228;18.936;2023-03-13T05:47:50;98045.50;;;5.48;65.25
40117;BME280;25829;50.228;18.936;2023-03-13T05:51:27;98046.94;;;5.50;65.02
40117;BME280;25829;50.228;18.936;2023-03-13T05:54:49;98038.53;;;5.55;64.98
40117;BME280;25829;50.228;18.936;2023-03-13T05:58:13;98040.13;;;5.56;65.19
40117;BME280;25829;50.228;18.936;2023-03-13T06:01:27;98021.28;;;5.60;65.12
40117;BME280;25829;50.228;18.936;2023-03-13T06:04:40;98012.44;;;5.62;65.55
40117;BME280;25829;50.228;18.936;2023-03-13T06:07:56;98010.06;;;5.67;65.04
40117;BME280;25829;50.228;18.936;2023-03-13T06:11:01;98007.31;;;5.75;65.34
40117;BME280;25829;50.228;18.936;2023-03-13T06:14:09;98006.13;;;5.77;65.28
40117;BME280;25829;50.228;18.936;2023-03-13T06:17:15;98006.94;;;5.78;65.45
40117;BME280;25829;50.228;18.936;2023-03-13T06:20:16;98004.34;;;5.78;65.35
40117;BME280;25829;50.228;18.936;2023-03-13T06:23:19;98015.63;;;5.78;65.53
40117;BME280;25829;50.228;18.936;2023-03-13T06:26:20;98010.81;;;5.82;65.52
40117;BME280;25829;50.228;18.936;2023-03-13T06:29:23;98014.66;;;5.86;65.13
40117;BME280;25829;50.228;18.936;2023-03-13T06:32:24;98008.28;;;5.89;65.06
40117;BME280;25829;50.228;18.936;2023-03-13T06:35:25;98015.19;;;5.96;64.79
40117;BME280;25829;50.228;18.936;2023-03-13T06:38:27;98013.88;;;6.07;65.15
40117;BME280;25829;50.228;18.936;2023-03-13T06:41:29;98016.16;;;6.17;64.64
40117;BME280;25829;50.228;18.936;2023-03-13T06:44:32;98021.25;;;6.25;64.84
40117;BME280;25829;50.228;18.936;2023-03-13T06:47:33;98016.09;;;6.38;64.18
40117;BME280;25829;50.228;18.936;2023-03-13T06:50:37;98010.56;;;6.54;64.25
40117;BME280;25829;50.228;18.936;2023-03-13T06:53:38;98007.19;;;6.67;63.59
40117;BME280;25829;50.228;18.936;2023-03-13T06:56:44;98007.66;;;6.77;63.10
40117;BME280;25829;50.228;18.936;2023-03-13T06:59:51;98007.09;;;6.82;63.03
40117;BME280;25829;50.228;18.936;2023-03-13T07:02:51;98011.13;;;6.85;62.69
40117;BME280;25829;50.228;18.936;2023-03-13T07:05:57;98004.69;;;6.87;62.80
40117;BME280;25829;50.228;18.936;2023-03-13T07:08:57;97994.22;;;6.94;62.96
40117;BME280;25829;50.228;18.936;2023-03-13T07:11:58;97999.53;;;7.07;62.57
40117;BME280;25829;50.228;18.936;2023-03-13T07:14:59;97996.34;;;7.18;62.17
40117;BME280;25829;50.228;18.936;2023-03-13T07:18:00;97993.13;;;7.30;61.89
40117;BME280;25829;50.228;18.936;2023-03-13T07:21:10;98004.88;;;7.40;61.56
40117;BME280;25829;50.228;18.936;2023-03-13T07:24:18;97993.38;;;7.41;61.60
40117;BME280;25829;50.228;18.936;2023-03-13T07:27:19;97986.09;;;7.43;61.51
40117;BME280;25829;50.228;18.936;2023-03-13T07:30:20;97984.50;;;7.49;61.86
40117;BME280;25829;50.228;18.936;2023-03-13T07:33:24;97988.75;;;7.57;61.95
40117;BME280;25829;50.228;18.936;2023-03-13T07:36:53;97973.25;;;7.68;61.65
40117;BME280;25829;50.228;18.936;2023-03-13T07:39:54;97972.25;;;7.76;61.06
40117;BME280;25829;50.228;18.936;2023-03-13T07:42:54;97964.81;;;7.86;61.10
40117;BME280;25829;50.228;18.936;2023-03-13T07:46:03;97967.44;;;8.00;61.20
40117;BME280;25829;50.228;18.936;2023-03-13T07:49:04;97957.72;;;8.13;60.91
40117;BME280;25829;50.228;18.936;2023-03-13T07:52:05;97974.88;;;8.23;60.11
40117;BME280;25829;50.228;18.936;2023-03-13T07:55:09;97959.91;;;8.30;60.15
40117;BME280;25829;50.228;18.936;2023-03-13T07:58:09;97957.66;;;8.40;60.25
40117;BME280;25829;50.228;18.936;2023-03-13T08:04:15;97956.00;;;8.65;59.66
40117;BME280;25829;50.228;18.936;2023-03-13T08:07:16;97952.50;;;8.72;59.49
40117;BME280;25829;50.228;18.936;2023-03-13T08:10:31;97951.50;;;8.79;59.60
40117;BME280;25829;50.228;18.936;2023-03-13T08:13:36;97956.91;;;8.91;59.29
40117;BME280;25829;50.228;18.936;2023-03-13T08:16:37;97958.31;;;8.93;58.87
40117;BME280;25829;50.228;18.936;2023-03-13T08:19:38;97954.81;;;9.00;58.61
40117;BME280;25829;50.228;18.936;2023-03-13T08:22:48;97951.75;;;9.09;59.01
40117;BME280;25829;50.228;18.936;2023-03-13T08:25:54;97944.38;;;9.25;58.77
40117;BME280;25829;50.228;18.936;2023-03-13T08:29:00;97927.53;;;9.32;58.38
40117;BME280;25829;50.228;18.936;2023-03-13T08:32:03;97932.38;;;9.42;58.36
40117;BME280;25829;50.228;18.936;2023-03-13T08:35:04;97940.19;;;9.55;57.91
40117;BME280;25829;50.228;18.936;2023-03-13T08:38:05;97929.09;;;9.72;58.24
40117;BME280;25829;50.228;18.936;2023-03-13T08:41:19;97932.09;;;10.00;57.72
40117;BME280;25829;50.228;18.936;2023-03-13T08:44:20;97929.50;;;10.19;57.22
40117;BME280;25829;50.228;18.936;2023-03-13T08:47:21;97939.50;;;10.35;56.37
40117;BME280;25829;50.228;18.936;2023-03-13T08:50:21;97922.13;;;10.46;56.77
40117;BME280;25829;50.228;18.936;2023-03-13T08:53:28;97927.03;;;10.61;56.48
40117;BME280;25829;50.228;18.936;2023-03-13T08:56:33;97937.72;;;10.66;55.97
40117;BME280;25829;50.228;18.936;2023-03-13T08:59:37;97916.78;;;10.71;55.22
40117;BME280;25829;50.228;18.936;2023-03-13T09:02:38;97919.34;;;10.77;55.50
40117;BME280;25829;50.228;18.936;2023-03-13T09:05:39;97911.72;;;10.88;55.23
40117;BME280;25829;50.228;18.936;2023-03-13T09:08:40;97907.53;;;10.98;54.37
40117;BME280;25829;50.228;18.936;2023-03-13T09:11:41;97903.63;;;11.01;53.70
40117;BME280;25829;50.228;18.936;2023-03-13T09:14:43;97910.06;;;11.05;53.37
40117;BME280;25829;50.228;18.936;2023-03-13T09:17:44;97896.28;;;11.03;53.76
40117;BME280;25829;50.228;18.936;2023-03-13T09:20:47;97879.56;;;11.09;53.53
40117;BME280;25829;50.228;18.936;2023-03-13T09:24:00;97891.50;;;11.12;53.87
40117;BME280;25829;50.228;18.936;2023-03-13T09:27:01;97895.22;;;11.22;53.18
40117;BME280;25829;50.228;18.936;2023-03-13T09:30:02;97890.63;;;11.29;53.91
40117;BME280;25829;50.228;18.936;2023-03-13T09:33:06;97876.19;;;11.44;53.26
40117;BME280;25829;50.228;18.936;2023-03-13T09:36:08;97873.91;;;11.59;52.88
40117;BME280;25829;50.228;18.936;2023-03-13T09:39:16;97866.22;;;11.69;52.78
40117;BME280;25829;50.228;18.936;2023-03-13T09:43:14;97882.09;;;11.93;52.67
40117;BME280;25829;50.228;18.936;2023-03-13T09:46:38;97882.47;;;12.08;51.29
40117;BME280;25829;50.228;18.936;2023-03-13T09:50:00;97876.78;;;12.28;50.23
40117;BME280;25829;50.228;18.936;2023-03-13T09:53:19;97864.13;;;12.42;49.48
40117;BME280;25829;50.228;18.936;2023-03-13T09:56:44;97864.91;;;12.54;49.23
40117;BME280;25829;50.228;18.936;2023-03-13T10:06:20;97856.72;;;12.84;49.79
40117;BME280;25829;50.228;18.936;2023-03-13T10:09:28;97837.38;;;13.12;49.65
40117;BME280;25829;50.228;18.936;2023-03-13T10:12:37;97850.13;;;13.61;49.47
40117;BME280;25829;50.228;18.936;2023-03-13T10:19:40;97816.66;;;14.15;45.37
40117;BME280;25829;50.228;18.936;2023-03-13T10:22:47;97845.81;;;14.32;46.23
40117;BME280;25829;50.228;18.936;2023-03-13T10:26:00;97829.22;;;14.42;45.90
40117;BME280;25829;50.228;18.936;2023-03-13T10:29:26;97810.81;;;14.35;44.01
40117;BME280;25829;50.228;18.936;2023-03-13T10:32:35;97807.06;;;14.31;46.12
40117;BME280;25829;50.228;18.936;2023-03-13T10:35:43;97801.19;;;14.07;43.34
40117;BME280;25829;50.228;18.936;2023-03-13T10:38:53;97808.50;;;13.61;44.89
40117;BME280;25829;50.228;18.936;2023-03-13T10:42:15;97802.75;;;13.31;45.85
40117;BME280;25829;50.228;18.936;2023-03-13T10:45:22;97803.91;;;13.06;46.53
40117;BME280;25829;50.228;18.936;2023-03-13T10:48:26;97802.91;;;12.79;47.37
40117;BME280;25829;50.228;18.936;2023-03-13T10:51:38;97798.38;;;12.62;47.29
40117;BME280;25829;50.228;18.936;2023-03-13T10:54:48;97794.50;;;12.53;48.02
40117;BME280;25829;50.228;18.936;2023-03-13T10:58:00;97784.28;;;12.45;46.73
40117;BME280;25829;50.228;18.936;2023-03-13T11:01:31;97782.38;;;12.29;47.36
40117;BME280;25829;50.228;18.936;2023-03-13T11:05:02;97788.38;;;12.24;48.06
40117;BME280;25829;50.228;18.936;2023-03-13T11:08:42;97780.69;;;12.22;47.59
40117;BME280;25829;50.228;18.936;2023-03-13T11:15:41;97752.75;;;12.15;48.32
40117;BME280;25829;50.228;18.936;2023-03-13T11:26:11;97725.34;;;11.92;47.90
40117;BME280;25829;50.228;18.936;2023-03-13T11:40:10;97711.84;;;11.65;49.34
40117;BME280;25829;50.228;18.936;2023-03-13T11:57:04;97683.31;;;11.79;48.23
40117;BME280;25829;50.228;18.936;2023-03-13T12:00:36;97692.16;;;11.85;48.22
40117;BME280;25829;50.228;18.936;2023-03-13T12:11:54;97673.06;;;11.83;45.54
40117;BME280;25829;50.228;18.936;2023-03-13T12:18:33;97677.97;;;11.91;45.93
40117;BME280;25829;50.228;18.936;2023-03-13T12:21:56;97674.78;;;11.89;43.39
40117;BME280;25829;50.228;18.936;2023-03-13T12:35:52;97658.56;;;11.57;46.11
40117;BME280;25829;50.228;18.936;2023-03-13T12:39:08;97658.00;;;11.54;46.69
40117;BME280;25829;50.228;18.936;2023-03-13T12:59:34;97678.13;;;10.97;50.71
40117;BME280;25829;50.228;18.936;2023-03-13T13:02:47;97674.69;;;10.85;50.88
40117;BME280;25829;50.228;18.936;2023-03-13T13:06:11;97670.38;;;10.72;51.36
40117;BME280;25829;50.228;18.936;2023-03-13T13:09:20;97678.06;;;10.62;51.71
40117;BME280;25829;50.228;18.936;2023-03-13T13:12:38;97667.41;;;10.56;51.69
40117;BME280;25829;50.228;18.936;2023-03-13T13:16:05;97661.19;;;10.51;52.14
40117;BME280;25829;50.228;18.936;2023-03-13T13:25:38;97640.88;;;10.40;52.87
40117;BME280;25829;50.228;18.936;2023-03-13T13:28:39;97625.63;;;10.42;52.69
40117;BME280;25829;50.228;18.936;2023-03-13T13:38:29;97629.44;;;10.46;52.50
40117;BME280;25829;50.228;18.936;2023-03-13T13:41:39;97623.81;;;10.42;52.42
40117;BME280;25829;50.228;18.936;2023-03-13T13:55:33;97611.63;;;10.29;53.80
40117;BME280;25829;50.228;18.936;2023-03-13T13:58:43;97611.84;;;10.28;53.89
40117;BME280;25829;50.228;18.936;2023-03-13T14:05:07;97615.25;;;10.17;54.19
40117;BME280;25829;50.228;18.936;2023-03-13T14:08:41;97615.59;;;10.08;54.39
40117;BME280;25829;50.228;18.936;2023-03-13T14:11:50;97614.63;;;10.03;55.03
40117;BME280;25829;50.228;18.936;2023-03-13T14:15:07;97607.28;;;9.93;56.31
40117;BME280;25829;50.228;18.936;2023-03-13T14:18:24;97610.09;;;9.80;57.38
40117;BME280;25829;50.228;18.936;2023-03-13T14:21:29;97610.72;;;9.63;57.59
40117;BME280;25829;50.228;18.936;2023-03-13T14:29:29;97588.66;;;9.46;59.41
40117;BME280;25829;50.228;18.936;2023-03-13T14:32:30;97592.97;;;9.40;59.17
40117;BME280;25829;50.228;18.936;2023-03-13T14:35:36;97586.78;;;9.35;59.27
40117;BME280;25829;50.228;18.936;2023-03-13T14:38:54;97586.53;;;9.36;59.62
40117;BME280;25829;50.228;18.936;2023-03-13T14:42:04;97583.75;;;9.31;58.58
40117;BME280;25829;50.228;18.936;2023-03-13T14:45:13;97580.41;;;9.24;58.70
40117;BME280;25829;50.228;18.936;2023-03-13T14:48:30;97580.41;;;9.24;58.39
40117;BME280;25829;50.228;18.936;2023-03-13T14:51:38;97588.84;;;9.26;58.67
40117;BME280;25829;50.228;18.936;2023-03-13T14:55:03;97590.00;;;9.30;58.60
40117;BME280;25829;50.228;18.936;2023-03-13T14:58:27;97576.41;;;9.33;58.31
40117;BME280;25829;50.228;18.936;2023-03-13T15:01:28;97573.00;;;9.33;57.98
40117;BME280;25829;50.228;18.936;2023-03-13T15:05:01;97578.41;;;9.38;58.10
40117;BME280;25829;50.228;18.936;2023-03-13T15:08:03;97580.25;;;9.37;57.89
40117;BME280;25829;50.228;18.936;2023-03-13T15:11:30;97575.13;;;9.43;57.94
40117;BME280;25829;50.228;18.936;2023-03-13T15:14:45;97563.94;;;9.47;57.69
40117;BME280;25829;50.228;18.936;2023-03-13T15:17:46;97560.41;;;9.53;57.30
40117;BME280;25829;50.228;18.936;2023-03-13T15:20:52;97552.63;;;9.58;57.49
40117;BME280;25829;50.228;18.936;2023-03-13T15:24:11;97560.09;;;9.61;57.43
40117;BME280;25829;50.228;18.936;2023-03-13T15:27:18;97549.34;;;9.63;56.98
40117;BME280;25829;50.228;18.936;2023-03-13T15:30:21;97560.81;;;9.69;56.97
40117;BME280;25829;50.228;18.936;2023-03-13T15:33:25;97561.16;;;9.72;57.01
40117;BME280;25829;50.228;18.936;2023-03-13T15:36:31;97559.34;;;9.73;56.95
40117;BME280;25829;50.228;18.936;2023-03-13T15:42:42;97562.44;;;9.70;56.93
40117;BME280;25829;50.228;18.936;2023-03-13T15:45:48;97557.00;;;9.64;57.01
40117;BME280;25829;50.228;18.936;2023-03-13T15:48:58;97547.53;;;9.63;56.89
40117;BME280;25829;50.228;18.936;2023-03-13T15:52:02;97553.22;;;9.60;57.04
40117;BME280;25829;50.228;18.936;2023-03-13T15:55:03;97563.53;;;9.62;56.97
40117;BME280;25829;50.228;18.936;2023-03-13T15:58:07;97557.69;;;9.60;57.05
40117;BME280;25829;50.228;18.936;2023-03-13T16:01:19;97566.63;;;9.59;57.10
40117;BME280;25829;50.228;18.936;2023-03-13T16:04:24;97557.91;;;9.58;56.83
40117;BME280;25829;50.228;18.936;2023-03-13T16:07:24;97555.28;;;9.58;56.97
40117;BME280;25829;50.228;18.936;2023-03-13T16:10:30;97564.56;;;9.61;56.91
40117;BME280;25829;50.228;18.936;2023-03-13T16:13:31;97557.09;;;9.58;56.92
40117;BME280;25829;50.228;18.936;2023-03-13T16:16:33;97545.78;;;9.57;56.90
40117;BME280;25829;50.228;18.936;2023-03-13T16:19:41;97543.00;;;9.52;56.92
40117;BME280;25829;50.228;18.936;2023-03-13T16:22:49;97534.75;;;9.49;57.20
40117;BME280;25829;50.228;18.936;2023-03-13T16:25:54;97536.81;;;9.47;57.24
40117;BME280;25829;50.228;18.936;2023-03-13T16:28:56;97527.50;;;9.44;57.34
40117;BME280;25829;50.228;18.936;2023-03-13T16:32:00;97525.13;;;9.43;57.09
40117;BME280;25829;50.228;18.936;2023-03-13T16:35:02;97532.41;;;9.40;57.41
40117;BME280;25829;50.228;18.936;2023-03-13T16:38:15;97522.94;;;9.39;57.50
40117;BME280;25829;50.228;18.936;2023-03-13T16:41:19;97521.78;;;9.35;57.41
40117;BME280;25829;50.228;18.936;2023-03-13T16:44:32;97518.50;;;9.33;57.68
40117;BME280;25829;50.228;18.936;2023-03-13T16:47:36;97519.34;;;9.34;57.53
40117;BME280;25829;50.228;18.936;2023-03-13T16:50:43;97524.00;;;9.32;57.75
40117;BME280;25829;50.228;18.936;2023-03-13T16:53:47;97520.00;;;9.29;57.72
40117;BME280;25829;50.228;18.936;2023-03-13T16:56:49;97515.75;;;9.28;57.80
40117;BME280;25829;50.228;18.936;2023-03-13T16:59:58;97518.84;;;9.25;57.63
40117;BME280;25829;50.228;18.936;2023-03-13T17:02:59;97523.28;;;9.25;57.83
40117;BME280;25829;50.228;18.936;2023-03-13T17:06:00;97512.97;;;9.23;57.98
40117;BME280;25829;50.228;18.936;2023-03-13T17:12:44;97508.94;;;9.21;58.02
40117;BME280;25829;50.228;18.936;2023-03-13T17:15:58;97506.78;;;9.18;57.99
40117;BME280;25829;50.228;18.936;2023-03-13T17:19:13;97508.38;;;9.19;58.02
40117;BME280;25829;50.228;18.936;2023-03-13T17:22:18;97509.63;;;9.16;57.69
40117;BME280;25829;50.228;18.936;2023-03-13T17:28:53;97509.84;;;9.14;57.81
40117;BME280;25829;50.228;18.936;2023-03-13T17:36:25;97492.31;;;9.08;57.93
40117;BME280;25829;50.228;18.936;2023-03-13T17:39:49;97502.25;;;9.06;58.18
40117;BME280;25829;50.228;18.936;2023-03-13T17:42:53;97494.59;;;9.05;57.91
40117;BME280;25829;50.228;18.936;2023-03-13T17:46:09;97480.63;;;9.04;58.10
40117;BME280;25829;50.228;18.936;2023-03-13T17:49:27;97483.47;;;9.03;57.82
40117;BME280;25829;50.228;18.936;2023-03-13T17:52:37;97475.38;;;9.04;57.85
40117;BME280;25829;50.228;18.936;2023-03-13T17:55:41;97469.06;;;9.05;57.60
40117;BME280;25829;50.228;18.936;2023-03-13T17:58:42;97460.94;;;9.07;57.63
40117;BME280;25829;50.228;18.936;2023-03-13T18:01:51;97458.91;;;9.09;57.40
40117;BME280;25829;50.228;18.936;2023-03-13T18:04:55;97454.09;;;9.06;57.27
40117;BME280;25829;50.228;18.936;2023-03-13T18:08:02;97443.56;;;9.06;57.24
40117;BME280;25829;50.228;18.936;2023-03-13T18:11:03;97435.69;;;9.06;57.06
40117;BME280;25829;50.228;18.936;2023-03-13T18:14:10;97431.44;;;9.05;56.86
40117;BME280;25829;50.228;18.936;2023-03-13T18:17:23;97419.34;;;9.04;56.97
40117;BME280;25829;50.228;18.936;2023-03-13T18:20:31;97414.28;;;9.02;56.73
40117;BME280;25829;50.228;18.936;2023-03-13T18:23:40;97418.50;;;9.03;56.49
40117;BME280;25829;50.228;18.936;2023-03-13T18:26:53;97408.22;;;9.02;56.56
40117;BME280;25829;50.228;18.936;2023-03-13T18:34:06;97418.06;;;9.06;56.37
40117;BME280;25829;50.228;18.936;2023-03-13T18:37:19;97420.56;;;9.01;56.30
40117;BME280;25829;50.228;18.936;2023-03-13T18:40:27;97414.72;;;8.99;56.76
40117;BME280;25829;50.228;18.936;2023-03-13T18:43:28;97420.22;;;8.98;56.57
40117;BME280;25829;50.228;18.936;2023-03-13T18:46:30;97412.09;;;8.99;57.11
40117;BME280;25829;50.228;18.936;2023-03-13T18:49:47;97421.38;;;9.02;56.74
40117;BME280;25829;50.228;18.936;2023-03-13T18:52:57;97405.81;;;9.00;56.74
40117;BME280;25829;50.228;18.936;2023-03-13T18:56:00;97403.03;;;8.95;56.62